14/05/05 - 01h:32mDenunciar

McDonnell Douglas F/A-18C Hornet

Aeronave pertencente à Força Aérea Canadense. A pintura comemorativa se deve à Tigermeet, uma reunião de 8 dias organizada pela OTAN onde esquadrões de caça de vários países se encontram para realizar operações aéreas simuladas.



Imagem de Kirk Webber, retirada do site Jetphotos.net.





METAR SBPB 140200Z 11003KT 9999 FEW020 BKN300 25/25 Q1010=

Comentários (0)

Fotos postadas a mais de 15 dias não podem receber comentários.